Winooski, Vermont
Current Conditions -  °F | °C
As of 8:54 PM on Saturday 22 Nov 2014 (Local Time) from KBTV Reporting Station
Overcast Overcast  
Wind Chill: 30°   Ceiling: 2800
Heat Index: 39°   Visibility: 10mi
Dew Point: 20°   Wind: 18mph
Humidity: 46%   Direction: 190°S
Pressure: 29.94"   Gusts: 28mph
Location:  44.49°N, 73.19°W
Report Text: KBTV 230154Z 19016G24KT 10SM OVC028 04/M07 A2994 RMK AO2 PK WND 20030/0057 SLP143 T00391067
Loading
Personal Weather Stations






























Interactive Weather Map New forecast layout! Learn more

10-Day Weather Forecast

Advertisements
Track Severe Weather on mobile